createdAt,value
2023-03-06T00:00:41.518Z,5.47
2023-03-06T00:03:09.217Z,4.75
2023-03-06T00:05:37.002Z,5.47
2023-03-06T00:08:05.084Z,5.32
2023-03-06T00:10:33.550Z,4.65
2023-03-06T00:13:06.213Z,5.10
2023-03-06T00:15:34.072Z,5.65
2023-03-06T00:18:05.103Z,4.97
2023-03-06T00:20:33.497Z,5.45
2023-03-06T00:23:01.347Z,5.60
2023-03-06T00:25:29.038Z,5.03
2023-03-06T00:27:56.767Z,4.70
2023-03-06T00:30:26.501Z,5.75
2023-03-06T00:32:54.771Z,5.32
2023-03-06T00:35:22.620Z,5.60
2023-03-06T00:37:50.342Z,5.20
2023-03-06T00:40:20.544Z,5.95
2023-03-06T00:42:48.660Z,6.25
2023-03-06T00:45:16.868Z,6.00
2023-03-06T00:47:45.946Z,5.75
2023-03-06T00:50:13.700Z,5.70
2023-03-06T00:52:42.130Z,5.80
2023-03-06T00:55:10.729Z,5.75
2023-03-06T00:57:38.538Z,5.65
2023-03-06T01:00:07.728Z,6.20
2023-03-06T01:02:35.507Z,5.07
2023-03-06T01:05:04.899Z,5.57
2023-03-06T01:07:34.032Z,5.40
2023-03-06T01:10:01.791Z,5.75
2023-03-06T01:12:29.610Z,5.80
2023-03-06T01:14:57.358Z,5.47
2023-03-06T01:17:25.141Z,5.13
2023-03-06T01:19:52.988Z,5.13
2023-03-06T01:22:22.055Z,4.53
2023-03-06T01:24:49.784Z,4.60
2023-03-06T01:27:17.485Z,5.10
2023-03-06T01:29:45.222Z,4.55
2023-03-06T01:32:13.027Z,5.47
2023-03-06T01:34:40.784Z,5.38
2023-03-06T01:37:08.490Z,6.10
2023-03-06T01:39:37.584Z,5.82
2023-03-06T01:42:05.817Z,5.95
2023-03-06T01:44:33.626Z,6.38
2023-03-06T01:47:02.332Z,7.68
2023-03-06T01:49:33.036Z,6.95
2023-03-06T01:52:04.620Z,5.72
2023-03-06T01:54:37.475Z,6.63
2023-03-06T01:57:16.022Z,6.40
2023-03-06T01:59:45.242Z,5.85
2023-03-06T02:02:17.249Z,6.13
2023-03-06T02:04:45.295Z,6.57
2023-03-06T02:07:15.225Z,6.07
2023-03-06T02:09:42.955Z,6.68
2023-03-06T02:12:15.222Z,6.97
2023-03-06T02:14:43.960Z,6.55
2023-03-06T02:17:14.412Z,6.63
2023-03-06T02:19:53.344Z,6.28
2023-03-06T02:22:21.911Z,7.25
2023-03-06T02:24:53.345Z,6.18
2023-03-06T02:27:24.445Z,7.45
2023-03-06T02:29:52.177Z,6.68
2023-03-06T02:32:19.892Z,6.95
2023-03-06T02:34:54.098Z,6.60
2023-03-06T02:37:22.839Z,7.53
2023-03-06T02:39:55.784Z,6.80
2023-03-06T02:42:28.792Z,7.65
2023-03-06T02:44:59.488Z,7.95
2023-03-06T02:47:27.536Z,7.38
2023-03-06T02:49:55.282Z,7.63
2023-03-06T02:52:23.100Z,6.93
2023-03-06T02:54:50.804Z,7.78
2023-03-06T02:57:18.523Z,7.43
2023-03-06T02:59:47.630Z,8.10
2023-03-06T03:02:15.365Z,8.65
2023-03-06T03:04:43.141Z,8.20
2023-03-06T03:07:10.906Z,9.15
2023-03-06T03:09:38.611Z,8.43
2023-03-06T03:12:07.500Z,10.02
2023-03-06T03:14:35.249Z,9.70
2023-03-06T03:17:04.614Z,9.50
2023-03-06T03:19:32.578Z,10.35
2023-03-06T03:22:00.331Z,10.23
2023-03-06T03:24:28.148Z,10.70
2023-03-06T03:26:55.928Z,11.75
2023-03-06T03:29:23.807Z,10.40
2023-03-06T03:31:51.515Z,11.63
2023-03-06T03:34:20.654Z,10.73
2023-03-06T03:36:48.346Z,12.32
2023-03-06T03:39:16.233Z,11.55
2023-03-06T03:41:43.954Z,12.60
2023-03-06T03:44:11.915Z,11.65
2023-03-06T03:46:39.760Z,10.95
2023-03-06T03:49:07.903Z,11.60
2023-03-06T03:51:36.989Z,12.80
2023-03-06T03:54:06.076Z,13.18
2023-03-06T03:56:35.021Z,12.55
2023-03-06T03:59:02.903Z,13.20
2023-03-06T04:01:30.654Z,12.93
2023-03-06T04:03:58.389Z,13.02
2023-03-06T04:06:26.086Z,13.02
2023-03-06T04:08:55.193Z,13.23
2023-03-06T04:11:23.034Z,14.88
2023-03-06T04:13:50.736Z,14.48
2023-03-06T04:16:18.514Z,13.93
2023-03-06T04:18:46.211Z,14.18
2023-03-06T04:21:13.971Z,15.88
2023-03-06T04:23:41.674Z,14.85
2023-03-06T04:26:11.066Z,14.55
2023-03-06T04:28:38.808Z,14.45
2023-03-06T04:31:06.805Z,14.98
2023-03-06T04:33:34.864Z,15.48
2023-03-06T04:36:02.564Z,14.32
2023-03-06T04:38:30.265Z,15.05
2023-03-06T04:40:57.975Z,15.88
2023-03-06T04:43:27.348Z,15.30
2023-03-06T04:45:55.092Z,16.02
2023-03-06T04:48:22.841Z,15.63
2023-03-06T04:50:50.543Z,14.80
2023-03-06T04:53:19.584Z,15.02
2023-03-06T04:55:47.548Z,14.77
2023-03-06T04:58:16.065Z,14.32
2023-03-06T05:00:45.207Z,15.23
2023-03-06T05:03:14.276Z,14.68
2023-03-06T05:05:42.021Z,14.18
2023-03-06T05:08:13.607Z,15.40
2023-03-06T05:10:41.410Z,15.73
2023-03-06T05:13:09.219Z,14.75
2023-03-06T05:15:36.953Z,15.10
2023-03-06T05:18:06.182Z,15.25
2023-03-06T05:20:33.918Z,15.95
2023-03-06T05:23:01.633Z,15.90
2023-03-06T05:25:29.312Z,15.57
2023-03-06T05:27:57.071Z,14.48
2023-03-06T05:30:25.191Z,15.52
2023-03-06T05:32:53.178Z,15.55
2023-03-06T05:35:24.442Z,15.70
2023-03-06T05:37:52.348Z,15.32
2023-03-06T05:40:20.523Z,14.85
2023-03-06T05:42:48.284Z,15.57
2023-03-06T05:45:15.984Z,14.20
2023-03-06T05:47:43.660Z,14.50
2023-03-06T05:50:13.997Z,15.43
2023-03-06T05:52:43.264Z,16.20
2023-03-06T05:55:13.449Z,15.65
2023-03-06T05:57:41.319Z,15.82
2023-03-06T06:00:14.854Z,15.63
2023-03-06T06:02:43.361Z,14.90
2023-03-06T06:05:13.143Z,15.90
2023-03-06T06:07:41.447Z,15.13
2023-03-06T06:10:12.834Z,17.13
2023-03-06T06:12:40.702Z,16.73
2023-03-06T06:15:09.172Z,16.10
2023-03-06T06:17:37.049Z,15.50
2023-03-06T06:20:05.566Z,16.02
2023-03-06T06:22:36.153Z,15.18
2023-03-06T06:25:03.871Z,16.25
2023-03-06T06:27:32.978Z,16.08
2023-03-06T06:30:00.709Z,18.55
2023-03-06T06:32:28.498Z,17.42
2023-03-06T06:34:56.246Z,17.25
2023-03-06T06:37:24.726Z,15.60
2023-03-06T06:39:52.487Z,15.93
2023-03-06T06:42:31.911Z,16.77
2023-03-06T06:45:03.733Z,16.50
2023-03-06T06:47:31.492Z,16.52
2023-03-06T06:49:59.240Z,15.48
2023-03-06T06:52:27.071Z,17.45
2023-03-06T06:54:55.017Z,16.88
2023-03-06T06:57:22.857Z,17.13
2023-03-06T06:59:52.534Z,17.83
2023-03-06T07:02:23.298Z,16.90
2023-03-06T07:05:03.189Z,17.42
2023-03-06T07:07:31.816Z,16.63
2023-03-06T07:09:59.534Z,18.15
2023-03-06T07:12:27.380Z,19.17
2023-03-06T07:14:55.108Z,18.38
2023-03-06T07:17:24.234Z,19.00
2023-03-06T07:19:51.976Z,18.10
2023-03-06T07:22:19.715Z,18.20
2023-03-06T07:24:47.412Z,18.30
2023-03-06T07:27:15.161Z,19.33
2023-03-06T07:29:44.004Z,18.98
2023-03-06T07:32:12.670Z,19.85
2023-03-06T07:34:43.129Z,19.02
2023-03-06T07:37:10.837Z,18.92
2023-03-06T07:39:38.633Z,19.45
2023-03-06T07:42:07.733Z,19.40
2023-03-06T07:44:37.612Z,19.73
2023-03-06T07:47:06.168Z,18.67
2023-03-06T07:49:35.262Z,18.67
2023-03-06T07:52:04.665Z,20.10
2023-03-06T07:54:32.757Z,18.52
2023-03-06T07:57:00.461Z,19.35
2023-03-06T07:59:28.345Z,20.08
2023-03-06T08:01:57.452Z,19.95
2023-03-06T08:04:25.312Z,19.40
2023-03-06T08:06:53.525Z,19.13
2023-03-06T08:09:22.701Z,20.65
2023-03-06T08:11:50.375Z,19.45
2023-03-06T08:14:18.344Z,17.70
2023-03-06T08:16:46.058Z,18.77
2023-03-06T08:19:13.808Z,18.52
2023-03-06T08:21:41.533Z,18.38
2023-03-06T08:24:09.645Z,19.55
2023-03-06T08:26:38.771Z,19.40
2023-03-06T08:29:08.079Z,18.98
2023-03-06T08:31:38.545Z,19.92
2023-03-06T08:34:09.847Z,21.17
2023-03-06T08:36:37.880Z,19.77
2023-03-06T08:39:06.614Z,18.85
2023-03-06T08:41:34.900Z,19.25
2023-03-06T08:44:04.432Z,19.13
2023-03-06T08:46:33.288Z,18.98
2023-03-06T08:49:01.026Z,18.75
2023-03-06T08:51:29.623Z,19.70
2023-03-06T08:53:58.383Z,16.83
2023-03-06T08:56:28.748Z,18.13
2023-03-06T08:58:58.098Z,17.42
2023-03-06T09:01:28.956Z,16.58
2023-03-06T09:03:58.300Z,17.42
2023-03-06T09:06:27.579Z,18.20
2023-03-06T09:08:56.228Z,16.48
2023-03-06T09:11:25.737Z,16.85
2023-03-06T09:13:53.980Z,16.73
2023-03-06T09:16:22.338Z,16.70
2023-03-06T09:18:53.002Z,16.58
2023-03-06T09:21:21.724Z,15.90
2023-03-06T09:23:49.643Z,17.30
2023-03-06T09:26:17.420Z,18.00
2023-03-06T09:28:45.388Z,15.40
2023-03-06T09:31:15.199Z,15.93
2023-03-06T09:33:43.343Z,16.77
2023-03-06T09:36:16.874Z,16.83
2023-03-06T09:38:45.839Z,16.75
2023-03-06T09:41:27.429Z,17.88
2023-03-06T09:43:59.057Z,16.00
2023-03-06T09:46:32.280Z,17.50
2023-03-06T09:49:13.340Z,17.05
2023-03-06T09:51:58.100Z,17.25
2023-03-06T09:54:33.761Z,16.27
2023-03-06T09:57:01.842Z,16.70
2023-03-06T09:59:29.843Z,17.25
2023-03-06T10:02:02.821Z,15.38
2023-03-06T10:04:37.272Z,16.65
2023-03-06T10:07:14.074Z,15.93
2023-03-06T10:09:47.471Z,15.88
2023-03-06T10:12:24.746Z,15.98
2023-03-06T10:15:03.828Z,14.98
2023-03-06T10:17:36.377Z,15.77
2023-03-06T10:20:17.260Z,14.85
2023-03-06T10:23:00.820Z,15.13
2023-03-06T10:25:34.162Z,15.50
2023-03-06T10:28:13.990Z,13.82
2023-03-06T10:30:47.008Z,15.07
2023-03-06T10:33:23.450Z,14.40
2023-03-06T10:35:53.157Z,13.77
2023-03-06T10:38:23.909Z,15.15
2023-03-06T10:41:08.247Z,17.02
2023-03-06T10:43:37.766Z,15.65
2023-03-06T10:46:07.670Z,16.63
2023-03-06T10:48:37.081Z,16.35
2023-03-06T10:51:19.023Z,15.85
2023-03-06T10:53:54.238Z,14.35
2023-03-06T10:56:29.499Z,15.45
2023-03-06T10:59:09.165Z,14.88
2023-03-06T11:01:37.774Z,15.13
2023-03-06T11:04:27.409Z,16.50
2023-03-06T11:07:17.497Z,15.90
2023-03-06T11:10:05.103Z,16.20
2023-03-06T11:12:34.558Z,14.68
2023-03-06T11:15:14.183Z,15.68
2023-03-06T11:17:51.088Z,14.48
2023-03-06T11:20:21.051Z,14.13
2023-03-06T11:22:52.047Z,14.50
2023-03-06T11:25:23.756Z,14.52
2023-03-06T11:27:58.608Z,14.00
2023-03-06T11:30:34.837Z,14.98
2023-03-06T11:33:09.323Z,15.02
2023-03-06T11:35:50.827Z,14.82
2023-03-06T11:38:23.512Z,14.85
2023-03-06T11:40:55.040Z,14.32
2023-03-06T11:43:28.056Z,14.88
2023-03-06T11:46:01.285Z,13.50
2023-03-06T11:48:35.295Z,14.85
2023-03-06T11:51:13.453Z,14.32
2023-03-06T11:53:41.858Z,14.05
2023-03-06T11:56:29.980Z,14.20
2023-03-06T11:59:08.730Z,13.60
2023-03-06T12:01:40.562Z,13.35
2023-03-06T12:04:26.773Z,13.95
2023-03-06T12:07:02.188Z,14.27
2023-03-06T12:09:40.367Z,13.45
2023-03-06T12:12:23.537Z,14.43
2023-03-06T12:15:06.550Z,15.27
2023-03-06T12:17:51.583Z,13.95
2023-03-06T12:20:37.259Z,14.98
2023-03-06T12:23:19.290Z,13.52
2023-03-06T12:25:53.183Z,14.60
2023-03-06T12:28:34.994Z,14.63
2023-03-06T12:31:40.152Z,13.18
2023-03-06T12:34:31.830Z,13.15
2023-03-06T12:37:16.800Z,13.30
2023-03-06T12:39:58.018Z,13.25
2023-03-06T12:42:43.706Z,13.30
2023-03-06T12:45:33.400Z,13.63
2023-03-06T12:48:03.727Z,13.43
2023-03-06T12:50:33.505Z,12.70
2023-03-06T12:53:04.414Z,13.50
2023-03-06T12:55:41.996Z,12.10
2023-03-06T12:58:35.286Z,10.02
2023-03-06T13:01:15.312Z,10.93
2023-03-06T13:04:04.976Z,10.85
2023-03-06T13:06:55.955Z,11.30
2023-03-06T13:09:31.311Z,10.90
2023-03-06T13:12:17.150Z,11.38
2023-03-06T13:14:55.140Z,10.80
2023-03-06T13:17:36.622Z,9.98
2023-03-06T13:20:36.256Z,9.95
2023-03-06T13:24:01.214Z,8.82
2023-03-06T13:26:52.542Z,8.48
2023-03-06T13:30:00.390Z,8.52
2023-03-06T13:32:35.902Z,8.70
2023-03-06T13:35:18.868Z,8.55
2023-03-06T13:37:51.123Z,8.40
2023-03-06T13:40:35.881Z,8.18
2023-03-06T13:43:41.462Z,7.57
2023-03-06T13:46:24.786Z,8.40
2023-03-06T13:49:11.980Z,8.05
2023-03-06T13:51:41.895Z,7.93
2023-03-06T13:54:38.047Z,8.15
2023-03-06T13:57:23.724Z,7.43
2023-03-06T14:00:14.327Z,7.35
2023-03-06T14:03:11.058Z,8.10
2023-03-06T14:05:45.836Z,7.00
2023-03-06T14:08:17.158Z,7.07
2023-03-06T14:10:46.572Z,7.70
2023-03-06T14:13:20.762Z,7.47
2023-03-06T14:15:50.306Z,7.30
2023-03-06T14:18:21.760Z,7.57
2023-03-06T14:20:56.210Z,6.60
2023-03-06T14:23:30.417Z,7.32
2023-03-06T14:26:03.625Z,7.25
2023-03-06T14:28:33.235Z,7.30
2023-03-06T14:31:03.071Z,7.47
2023-03-06T14:33:33.342Z,7.10
2023-03-06T14:36:05.104Z,6.47
2023-03-06T14:38:37.277Z,6.50
2023-03-06T14:41:06.952Z,6.88
2023-03-06T14:43:34.659Z,7.10
2023-03-06T14:46:05.099Z,7.20
2023-03-06T14:48:42.271Z,7.47
2023-03-06T14:51:17.882Z,7.78
2023-03-06T14:53:48.078Z,8.27
2023-03-06T14:56:19.142Z,7.15
2023-03-06T14:58:55.179Z,7.47
2023-03-06T15:01:28.382Z,8.40
2023-03-06T15:03:59.074Z,8.05
2023-03-06T15:06:34.414Z,7.28
2023-03-06T15:09:07.810Z,7.78
2023-03-06T15:12:00.236Z,7.75
2023-03-06T15:14:34.871Z,8.48
2023-03-06T15:17:24.284Z,8.80
2023-03-06T15:19:54.501Z,10.93
2023-03-06T15:22:29.480Z,10.07
2023-03-06T15:25:19.748Z,11.20
2023-03-06T15:27:50.895Z,11.23
2023-03-06T15:30:28.119Z,12.18
2023-03-06T15:33:25.338Z,10.82
2023-03-06T15:35:57.166Z,12.50
2023-03-06T15:38:38.399Z,10.93
2023-03-06T15:41:07.693Z,10.60
2023-03-06T15:43:38.294Z,10.63
2023-03-06T15:46:08.405Z,10.32
2023-03-06T15:48:36.378Z,10.35
2023-03-06T15:51:04.970Z,11.10
2023-03-06T15:53:34.154Z,10.15
2023-03-06T15:56:02.957Z,10.48
2023-03-06T15:58:34.667Z,10.00
2023-03-06T16:01:03.732Z,9.70
2023-03-06T16:03:31.660Z,10.07
2023-03-06T16:05:59.414Z,9.88
2023-03-06T16:08:27.745Z,10.90
2023-03-06T16:10:56.837Z,11.00
2023-03-06T16:13:28.062Z,12.13
2023-03-06T16:15:56.212Z,10.85
2023-03-06T16:18:23.978Z,10.52
2023-03-06T16:20:51.834Z,10.82
2023-03-06T16:23:19.520Z,11.65
2023-03-06T16:25:50.226Z,10.60
2023-03-06T16:28:20.112Z,11.40
2023-03-06T16:30:47.946Z,10.48
2023-03-06T16:33:15.859Z,11.77
2023-03-06T16:35:46.548Z,11.57
2023-03-06T16:38:15.606Z,12.13
2023-03-06T16:40:43.800Z,11.85
2023-03-06T16:43:13.480Z,11.27
2023-03-06T16:45:43.506Z,11.85
2023-03-06T16:48:16.342Z,11.25
2023-03-06T16:50:44.672Z,10.82
2023-03-06T16:53:12.371Z,10.57
2023-03-06T16:55:40.349Z,12.10
2023-03-06T16:58:08.659Z,11.55
2023-03-06T17:00:36.372Z,11.40
2023-03-06T17:03:05.511Z,11.57
2023-03-06T17:05:34.654Z,12.85
2023-03-06T17:08:02.443Z,12.77
2023-03-06T17:10:30.321Z,12.90
2023-03-06T17:12:58.285Z,11.95
2023-03-06T17:15:26.165Z,12.25
2023-03-06T17:17:54.029Z,12.63
2023-03-06T17:20:23.795Z,11.85
2023-03-06T17:22:51.610Z,12.27
2023-03-06T17:25:19.581Z,12.45
2023-03-06T17:27:47.282Z,12.60
2023-03-06T17:30:15.498Z,13.10
2023-03-06T17:32:43.342Z,12.88
2023-03-06T17:35:11.341Z,13.57
2023-03-06T17:37:40.463Z,13.90
2023-03-06T17:40:10.704Z,15.05
2023-03-06T17:42:38.473Z,13.15
2023-03-06T17:45:09.283Z,14.35
2023-03-06T17:47:37.043Z,13.05
2023-03-06T17:50:05.419Z,13.60
2023-03-06T17:52:33.442Z,12.85
2023-03-06T17:55:02.543Z,14.40
2023-03-06T17:57:30.219Z,14.27
2023-03-06T17:59:57.940Z,14.32
2023-03-06T18:02:25.678Z,15.40
2023-03-06T18:04:53.455Z,14.02
2023-03-06T18:07:21.168Z,13.73
2023-03-06T18:09:49.110Z,14.48
2023-03-06T18:12:18.367Z,13.95
2023-03-06T18:14:46.940Z,12.93
2023-03-06T18:17:14.694Z,14.30
2023-03-06T18:19:42.453Z,12.48
2023-03-06T18:22:10.211Z,12.93
2023-03-06T18:24:37.950Z,13.38
2023-03-06T18:27:05.728Z,13.23
2023-03-06T18:29:34.801Z,12.25
2023-03-06T18:32:03.052Z,13.43
2023-03-06T18:34:30.976Z,12.77
2023-03-06T18:36:58.673Z,11.88
2023-03-06T18:39:26.393Z,12.32
2023-03-06T18:41:54.793Z,11.63
2023-03-06T18:44:23.256Z,12.20
2023-03-06T18:46:52.397Z,11.65
2023-03-06T18:49:20.327Z,11.25
2023-03-06T18:51:50.189Z,11.63
2023-03-06T18:54:18.027Z,11.45
2023-03-06T18:56:45.683Z,11.23
2023-03-06T18:59:18.200Z,11.63
2023-03-06T19:01:47.215Z,10.82
2023-03-06T19:04:16.381Z,11.18
2023-03-06T19:06:44.173Z,10.98
2023-03-06T19:09:12.029Z,11.23
2023-03-06T19:11:40.136Z,11.10
2023-03-06T19:14:08.678Z,10.20
2023-03-06T19:16:36.561Z,11.00
2023-03-06T19:19:04.507Z,10.75
2023-03-06T19:21:33.639Z,11.05
2023-03-06T19:24:03.303Z,11.32
2023-03-06T19:26:31.246Z,10.68
2023-03-06T19:28:59.037Z,10.55
2023-03-06T19:31:28.479Z,9.70
2023-03-06T19:33:57.675Z,11.07
2023-03-06T19:36:28.763Z,10.77
2023-03-06T19:38:59.142Z,10.27
2023-03-06T19:41:27.850Z,9.90
2023-03-06T19:43:58.281Z,11.63
2023-03-06T19:46:27.434Z,10.48
2023-03-06T19:48:57.156Z,10.23
2023-03-06T19:51:25.364Z,10.60
2023-03-06T19:53:53.364Z,11.00
2023-03-06T19:56:26.019Z,9.93
2023-03-06T19:58:53.742Z,11.10
2023-03-06T20:01:23.390Z,11.45
2023-03-06T20:03:56.125Z,11.88
2023-03-06T20:06:23.862Z,11.75
2023-03-06T20:08:51.605Z,11.10
2023-03-06T20:11:20.861Z,10.75
2023-03-06T20:13:50.371Z,11.82
2023-03-06T20:16:18.856Z,11.38
2023-03-06T20:18:46.820Z,11.20
2023-03-06T20:21:15.329Z,12.48
2023-03-06T20:23:43.246Z,12.65
2023-03-06T20:26:12.812Z,11.15
2023-03-06T20:28:41.417Z,11.25
2023-03-06T20:31:13.313Z,11.27
2023-03-06T20:33:41.128Z,10.45
2023-03-06T20:36:13.763Z,11.65
2023-03-06T20:38:41.721Z,11.60
2023-03-06T20:41:15.488Z,11.65
2023-03-06T20:43:43.289Z,10.77
2023-03-06T20:46:13.900Z,12.15
2023-03-06T20:48:42.307Z,11.07
2023-03-06T20:51:16.270Z,11.52
2023-03-06T20:53:44.610Z,11.15
2023-03-06T20:56:13.544Z,10.98
2023-03-06T20:58:41.305Z,11.77
2023-03-06T21:01:09.157Z,11.10
2023-03-06T21:03:38.229Z,10.85
2023-03-06T21:06:06.289Z,11.43
2023-03-06T21:08:34.009Z,12.18
2023-03-06T21:11:01.697Z,10.73
2023-03-06T21:13:29.430Z,10.75
2023-03-06T21:15:57.158Z,10.90
2023-03-06T21:18:24.966Z,11.50
2023-03-06T21:20:54.016Z,11.00
2023-03-06T21:23:21.727Z,10.82
2023-03-06T21:25:50.150Z,10.60
2023-03-06T21:28:18.258Z,11.48
2023-03-06T21:30:46.936Z,11.23
2023-03-06T21:33:16.048Z,10.90
2023-03-06T21:35:45.065Z,10.52
2023-03-06T21:38:15.447Z,10.40
2023-03-06T21:40:45.421Z,10.60
2023-03-06T21:43:13.177Z,9.60
2023-03-06T21:45:44.588Z,9.90
2023-03-06T21:48:12.790Z,9.85
2023-03-06T21:50:40.581Z,9.73
2023-03-06T21:53:09.887Z,8.93
2023-03-06T21:55:41.435Z,9.45
2023-03-06T21:58:09.411Z,9.35
2023-03-06T22:00:37.324Z,9.05
2023-03-06T22:03:06.622Z,8.38
2023-03-06T22:05:34.407Z,8.88
2023-03-06T22:08:02.161Z,8.30
2023-03-06T22:10:29.909Z,7.97
2023-03-06T22:12:58.970Z,8.52
2023-03-06T22:15:26.775Z,7.13
2023-03-06T22:17:54.455Z,7.53
2023-03-06T22:20:22.192Z,6.68
2023-03-06T22:22:49.925Z,7.45
2023-03-06T22:25:17.824Z,7.03
2023-03-06T22:27:45.516Z,6.40
2023-03-06T22:30:15.045Z,6.15
2023-03-06T22:32:42.769Z,6.85
2023-03-06T22:35:10.909Z,6.05
2023-03-06T22:37:38.638Z,6.43
2023-03-06T22:40:07.286Z,6.18
2023-03-06T22:42:35.309Z,5.70
2023-03-06T22:45:03.124Z,4.78
2023-03-06T22:47:32.201Z,5.63
2023-03-06T22:49:59.927Z,5.10
2023-03-06T22:52:27.583Z,5.13
2023-03-06T22:54:55.320Z,5.25
2023-03-06T22:57:23.022Z,5.07
2023-03-06T22:59:50.752Z,4.95
2023-03-06T23:02:18.490Z,4.60
2023-03-06T23:04:52.078Z,4.65
2023-03-06T23:07:20.292Z,4.35
2023-03-06T23:09:48.118Z,4.13
2023-03-06T23:12:15.816Z,4.28
2023-03-06T23:14:43.677Z,3.95
2023-03-06T23:17:11.520Z,3.90
2023-03-06T23:19:39.346Z,4.05
2023-03-06T23:22:08.446Z,3.90
2023-03-06T23:24:36.741Z,4.53
2023-03-06T23:27:04.735Z,3.85
2023-03-06T23:29:32.528Z,3.45
2023-03-06T23:32:00.217Z,3.15
2023-03-06T23:34:28.029Z,3.22
2023-03-06T23:36:56.246Z,3.42
2023-03-06T23:39:25.503Z,3.30
2023-03-06T23:41:53.215Z,3.67
2023-03-06T23:44:20.940Z,3.38
2023-03-06T23:46:48.657Z,3.30
2023-03-06T23:49:16.624Z,3.28
2023-03-06T23:51:44.352Z,3.10
2023-03-06T23:54:12.171Z,3.20
2023-03-06T23:56:41.246Z,3.17
2023-03-06T23:59:10.854Z,2.83
